Terminal Aerodrome Forecast
Issued by NWS Twin Cities, MN

Home | Current Version | Previous Version | Text Only | Print | Product List | Glossary Off
Versions: 1 2 3 4 5 6 7 8 9 10 11 12 13 14 15 16 17 18 19 20

000
FTUS43 KMPX 082337
TAFSTC
TAF
KSTC 082337Z 0900/0924 26011KT P6SM VCSH OVC025
      TEMPO 0900/0903 4SM -SN OVC015
     FM090300 32013G21KT P6SM OVC030
     FM090900 34013G21KT P6SM BKN035 OVC050
     FM091700 32010KT P6SM BKN070
     FM092000 30009KT P6SM SCT110
     FM092300 26006KT P6SM BKN120=

USA.gov is the U.S. government's official web portal to all federal, state and local government web resources and services.